sensor_id;sensor_type;location;lat;lon;timestamp;pressure;altitude;pressure_sealevel;temperature;humidity
22651;BME280;11492;42.646;23.400;2023-11-19T00:01:51;94986.59;;;4.34;65.63
22651;BME280;11492;42.646;23.400;2023-11-19T00:04:21;94993.38;;;4.52;65.28
22651;BME280;11492;42.646;23.400;2023-11-19T00:06:52;95005.66;;;4.40;65.54
22651;BME280;11492;42.646;23.400;2023-11-19T00:09:22;95004.31;;;4.45;65.73
22651;BME280;11492;42.646;23.400;2023-11-19T00:11:50;95001.03;;;4.52;65.25
22651;BME280;11492;42.646;23.400;2023-11-19T00:14:21;94996.19;;;4.49;64.93
22651;BME280;11492;42.646;23.400;2023-11-19T00:16:46;95002.94;;;4.50;64.57
22651;BME280;11492;42.646;23.400;2023-11-19T00:19:14;94986.16;;;4.22;65.50
22651;BME280;11492;42.646;23.400;2023-11-19T00:21:42;95009.72;;;4.42;65.74
22651;BME280;11492;42.646;23.400;2023-11-19T00:24:13;95000.56;;;4.40;65.26
22651;BME280;11492;42.646;23.400;2023-11-19T00:26:44;95012.66;;;4.47;64.36
22651;BME280;11492;42.646;23.400;2023-11-19T00:29:12;95008.13;;;4.58;64.94
22651;BME280;11492;42.646;23.400;2023-11-19T00:31:41;95010.41;;;4.61;64.14
22651;BME280;11492;42.646;23.400;2023-11-19T00:34:09;95000.03;;;4.63;64.39
22651;BME280;11492;42.646;23.400;2023-11-19T00:36:39;95007.97;;;4.60;64.37
22651;BME280;11492;42.646;23.400;2023-11-19T00:39:07;95009.09;;;4.57;64.92
22651;BME280;11492;42.646;23.400;2023-11-19T00:41:34;94999.56;;;4.50;64.08
22651;BME280;11492;42.646;23.400;2023-11-19T00:44:04;95000.41;;;4.50;64.47
22651;BME280;11492;42.646;23.400;2023-11-19T00:46:30;95034.25;;;4.52;64.64
22651;BME280;11492;42.646;23.400;2023-11-19T00:48:58;95025.81;;;4.52;64.66
22651;BME280;11492;42.646;23.400;2023-11-19T00:51:28;95032.75;;;4.59;64.23
22651;BME280;11492;42.646;23.400;2023-11-19T00:53:59;95033.03;;;4.56;64.72
22651;BME280;11492;42.646;23.400;2023-11-19T00:56:26;95021.44;;;4.62;64.47
22651;BME280;11492;42.646;23.400;2023-11-19T00:58:59;95016.56;;;4.68;64.18
22651;BME280;11492;42.646;23.400;2023-11-19T01:01:29;95000.88;;;4.54;63.93
22651;BME280;11492;42.646;23.400;2023-11-19T01:03:57;95017.94;;;4.63;64.69
22651;BME280;11492;42.646;23.400;2023-11-19T01:06:32;95028.97;;;4.63;64.41
22651;BME280;11492;42.646;23.400;2023-11-19T01:09:00;95023.84;;;4.63;64.18
22651;BME280;11492;42.646;23.400;2023-11-19T01:11:30;95051.31;;;4.61;64.40
22651;BME280;11492;42.646;23.400;2023-11-19T01:13:56;95026.81;;;4.59;64.80
22651;BME280;11492;42.646;23.400;2023-11-19T01:16:26;95036.56;;;4.55;64.41
22651;BME280;11492;42.646;23.400;2023-11-19T01:18:55;95021.44;;;4.62;64.71
22651;BME280;11492;42.646;23.400;2023-11-19T01:21:23;95016.81;;;4.65;64.20
22651;BME280;11492;42.646;23.400;2023-11-19T01:23:54;95026.13;;;4.66;64.76
22651;BME280;11492;42.646;23.400;2023-11-19T01:26:19;95021.41;;;4.71;64.59
22651;BME280;11492;42.646;23.400;2023-11-19T01:28:48;95021.25;;;4.72;64.47
22651;BME280;11492;42.646;23.400;2023-11-19T01:31:17;95010.22;;;4.72;63.65
22651;BME280;11492;42.646;23.400;2023-11-19T01:33:45;95020.44;;;4.72;63.69
22651;BME280;11492;42.646;23.400;2023-11-19T01:36:15;95034.34;;;4.60;64.23
22651;BME280;11492;42.646;23.400;2023-11-19T01:38:45;95044.06;;;4.57;64.43
22651;BME280;11492;42.646;23.400;2023-11-19T01:41:12;95037.59;;;4.36;64.98
22651;BME280;11492;42.646;23.400;2023-11-19T01:43:43;95035.50;;;4.48;64.26
22651;BME280;11492;42.646;23.400;2023-11-19T01:46:13;95000.47;;;4.32;64.72
22651;BME280;11492;42.646;23.400;2023-11-19T01:48:44;95028.94;;;4.46;64.17
22651;BME280;11492;42.646;23.400;2023-11-19T01:51:15;95021.50;;;4.26;65.16
22651;BME280;11492;42.646;23.400;2023-11-19T01:53:44;95027.34;;;4.09;64.39
22651;BME280;11492;42.646;23.400;2023-11-19T01:56:13;95030.94;;;4.43;64.77
22651;BME280;11492;42.646;23.400;2023-11-19T01:58:44;95015.38;;;4.36;64.50
22651;BME280;11492;42.646;23.400;2023-11-19T02:01:12;95035.09;;;4.17;64.51
22651;BME280;11492;42.646;23.400;2023-11-19T02:03:38;95035.66;;;4.11;64.31
22651;BME280;11492;42.646;23.400;2023-11-19T02:06:12;95025.41;;;4.21;64.11
22651;BME280;11492;42.646;23.400;2023-11-19T02:08:40;95008.03;;;4.24;64.64
22651;BME280;11492;42.646;23.400;2023-11-19T02:11:11;95034.16;;;4.45;64.10
22651;BME280;11492;42.646;23.400;2023-11-19T02:13:40;95024.31;;;4.23;63.62
22651;BME280;11492;42.646;23.400;2023-11-19T02:16:09;95018.09;;;4.35;63.66
22651;BME280;11492;42.646;23.400;2023-11-19T02:18:38;95018.53;;;4.30;63.23
22651;BME280;11492;42.646;23.400;2023-11-19T02:21:08;95016.84;;;4.12;63.89
22651;BME280;11492;42.646;23.400;2023-11-19T02:23:38;95011.16;;;4.18;64.00
22651;BME280;11492;42.646;23.400;2023-11-19T02:26:15;95012.22;;;4.25;64.03
22651;BME280;11492;42.646;23.400;2023-11-19T02:28:48;95011.53;;;4.23;64.00
22651;BME280;11492;42.646;23.400;2023-11-19T02:31:16;95026.47;;;4.18;63.48
22651;BME280;11492;42.646;23.400;2023-11-19T02:33:46;95030.22;;;4.23;63.97
22651;BME280;11492;42.646;23.400;2023-11-19T02:36:19;95007.19;;;4.06;63.01
22651;BME280;11492;42.646;23.400;2023-11-19T02:38:47;95023.94;;;4.18;63.61
22651;BME280;11492;42.646;23.400;2023-11-19T02:41:15;95011.16;;;4.18;63.60
22651;BME280;11492;42.646;23.400;2023-11-19T02:43:40;95031.75;;;4.17;63.20
22651;BME280;11492;42.646;23.400;2023-11-19T02:46:11;95011.91;;;4.01;63.88
22651;BME280;11492;42.646;23.400;2023-11-19T02:48:44;95031.13;;;4.05;63.45
22651;BME280;11492;42.646;23.400;2023-11-19T02:51:16;95024.28;;;3.97;63.73
22651;BME280;11492;42.646;23.400;2023-11-19T02:53:44;95039.44;;;4.07;64.14
22651;BME280;11492;42.646;23.400;2023-11-19T02:56:15;95026.97;;;4.04;63.55
22651;BME280;11492;42.646;23.400;2023-11-19T02:58:50;95043.59;;;4.08;63.71
22651;BME280;11492;42.646;23.400;2023-11-19T03:01:27;95034.06;;;4.10;63.76
22651;BME280;11492;42.646;23.400;2023-11-19T03:04:00;95020.91;;;4.05;63.25
22651;BME280;11492;42.646;23.400;2023-11-19T03:06:30;95039.94;;;4.20;63.57
22651;BME280;11492;42.646;23.400;2023-11-19T03:09:03;95002.81;;;3.90;64.09
22651;BME280;11492;42.646;23.400;2023-11-19T03:11:37;95025.78;;;3.99;63.49
22651;BME280;11492;42.646;23.400;2023-11-19T03:14:10;95026.34;;;3.84;63.48
22651;BME280;11492;42.646;23.400;2023-11-19T03:16:43;95052.88;;;4.09;63.71
22651;BME280;11492;42.646;23.400;2023-11-19T03:19:13;95048.59;;;4.00;63.94
22651;BME280;11492;42.646;23.400;2023-11-19T03:21:40;95015.97;;;3.95;63.57
22651;BME280;11492;42.646;23.400;2023-11-19T03:24:13;95040.13;;;4.09;63.66
22651;BME280;11492;42.646;23.400;2023-11-19T03:26:41;95039.00;;;4.21;62.51
22651;BME280;11492;42.646;23.400;2023-11-19T03:29:10;95054.91;;;4.42;63.35
22651;BME280;11492;42.646;23.400;2023-11-19T03:31:36;95042.16;;;4.32;62.25
22651;BME280;11492;42.646;23.400;2023-11-19T03:34:04;95041.38;;;4.32;62.44
22651;BME280;11492;42.646;23.400;2023-11-19T03:36:37;95041.22;;;4.33;62.59
22651;BME280;11492;42.646;23.400;2023-11-19T03:39:05;95056.13;;;4.38;62.59
22651;BME280;11492;42.646;23.400;2023-11-19T03:41:32;95025.97;;;4.15;62.85
22651;BME280;11492;42.646;23.400;2023-11-19T03:44:03;95060.19;;;4.31;62.73
22651;BME280;11492;42.646;23.400;2023-11-19T03:46:33;95062.94;;;4.20;63.17
22651;BME280;11492;42.646;23.400;2023-11-19T03:49:01;95057.91;;;4.28;63.43
22651;BME280;11492;42.646;23.400;2023-11-19T03:51:29;95057.47;;;4.42;62.99
22651;BME280;11492;42.646;23.400;2023-11-19T03:54:02;95088.50;;;4.47;63.00
22651;BME280;11492;42.646;23.400;2023-11-19T03:56:30;95067.09;;;4.47;62.24
22651;BME280;11492;42.646;23.400;2023-11-19T03:59:01;95074.56;;;4.32;63.08
22651;BME280;11492;42.646;23.400;2023-11-19T04:01:29;95052.72;;;4.20;63.29
22651;BME280;11492;42.646;23.400;2023-11-19T04:03:57;95070.19;;;4.24;63.30
22651;BME280;11492;42.646;23.400;2023-11-19T04:06:28;95074.19;;;4.27;63.60
22651;BME280;11492;42.646;23.400;2023-11-19T04:08:56;95086.44;;;4.23;63.68
22651;BME280;11492;42.646;23.400;2023-11-19T04:11:27;95080.63;;;4.31;63.22
22651;BME280;11492;42.646;23.400;2023-11-19T04:13:53;95066.25;;;4.30;63.19
22651;BME280;11492;42.646;23.400;2023-11-19T04:16:25;95097.31;;;4.35;63.02
22651;BME280;11492;42.646;23.400;2023-11-19T04:18:58;95081.72;;;4.19;63.54
22651;BME280;11492;42.646;23.400;2023-11-19T04:21:29;95081.03;;;4.36;63.36
22651;BME280;11492;42.646;23.400;2023-11-19T04:23:56;95083.41;;;4.47;63.34
22651;BME280;11492;42.646;23.400;2023-11-19T04:26:24;95079.94;;;4.29;62.90
22651;BME280;11492;42.646;23.400;2023-11-19T04:28:52;95075.94;;;4.26;63.41
22651;BME280;11492;42.646;23.400;2023-11-19T04:31:23;95072.19;;;4.21;63.25
22651;BME280;11492;42.646;23.400;2023-11-19T04:33:51;95072.16;;;4.30;63.55
22651;BME280;11492;42.646;23.400;2023-11-19T04:36:22;95098.91;;;4.36;62.24
22651;BME280;11492;42.646;23.400;2023-11-19T04:38:50;95093.91;;;4.34;63.29
22651;BME280;11492;42.646;23.400;2023-11-19T04:41:18;95093.97;;;4.25;62.74
22651;BME280;11492;42.646;23.400;2023-11-19T04:43:48;95088.59;;;4.19;62.95
22651;BME280;11492;42.646;23.400;2023-11-19T04:46:16;95103.19;;;3.99;63.34
22651;BME280;11492;42.646;23.400;2023-11-19T04:48:47;95078.59;;;3.98;63.24
22651;BME280;11492;42.646;23.400;2023-11-19T04:51:19;95095.53;;;3.99;64.08
22651;BME280;11492;42.646;23.400;2023-11-19T04:53:50;95074.44;;;3.88;63.63
22651;BME280;11492;42.646;23.400;2023-11-19T04:56:24;95096.31;;;4.09;63.96
22651;BME280;11492;42.646;23.400;2023-11-19T04:58:53;95093.59;;;4.20;63.52
22651;BME280;11492;42.646;23.400;2023-11-19T05:01:22;95087.84;;;3.99;63.56
22651;BME280;11492;42.646;23.400;2023-11-19T05:03:50;95092.66;;;4.12;63.41
22651;BME280;11492;42.646;23.400;2023-11-19T05:06:23;95109.56;;;4.22;63.02
22651;BME280;11492;42.646;23.400;2023-11-19T05:08:53;95094.56;;;4.10;62.84
22651;BME280;11492;42.646;23.400;2023-11-19T05:11:24;95112.13;;;4.13;62.54
22651;BME280;11492;42.646;23.400;2023-11-19T05:13:55;95129.19;;;4.22;62.80
22651;BME280;11492;42.646;23.400;2023-11-19T05:16:31;95120.66;;;4.04;63.03
22651;BME280;11492;42.646;23.400;2023-11-19T05:19:02;95122.75;;;4.08;63.19
22651;BME280;11492;42.646;23.400;2023-11-19T05:21:32;95112.28;;;4.11;62.97
22651;BME280;11492;42.646;23.400;2023-11-19T05:24:00;95131.63;;;4.14;62.92
22651;BME280;11492;42.646;23.400;2023-11-19T05:26:28;95116.97;;;4.16;62.89
22651;BME280;11492;42.646;23.400;2023-11-19T05:28:59;95111.88;;;4.06;62.88
22651;BME280;11492;42.646;23.400;2023-11-19T05:31:27;95113.38;;;4.09;62.33
22651;BME280;11492;42.646;23.400;2023-11-19T05:33:55;95112.03;;;4.05;62.29
22651;BME280;11492;42.646;23.400;2023-11-19T05:36:26;95124.41;;;4.09;61.73
22651;BME280;11492;42.646;23.400;2023-11-19T05:38:56;95127.47;;;4.13;62.72
22651;BME280;11492;42.646;23.400;2023-11-19T05:41:24;95139.81;;;4.17;62.30
22651;BME280;11492;42.646;23.400;2023-11-19T05:43:52;95112.84;;;3.96;62.31
22651;BME280;11492;42.646;23.400;2023-11-19T05:46:22;95138.09;;;4.08;62.35
22651;BME280;11492;42.646;23.400;2023-11-19T05:48:53;95142.13;;;4.01;62.41
22651;BME280;11492;42.646;23.400;2023-11-19T05:51:23;95137.56;;;4.05;61.85
22651;BME280;11492;42.646;23.400;2023-11-19T05:53:55;95115.38;;;4.05;62.03
22651;BME280;11492;42.646;23.400;2023-11-19T05:56:26;95121.69;;;4.20;62.78
22651;BME280;11492;42.646;23.400;2023-11-19T05:59:00;95121.94;;;4.17;62.27
22651;BME280;11492;42.646;23.400;2023-11-19T06:01:31;95145.59;;;4.19;63.15
22651;BME280;11492;42.646;23.400;2023-11-19T06:03:59;95134.63;;;4.09;61.80
22651;BME280;11492;42.646;23.400;2023-11-19T06:06:28;95159.34;;;3.99;62.97
22651;BME280;11492;42.646;23.400;2023-11-19T06:09:01;95149.28;;;3.89;62.69
22651;BME280;11492;42.646;23.400;2023-11-19T06:11:30;95160.16;;;3.81;62.97
22651;BME280;11492;42.646;23.400;2023-11-19T06:14:01;95145.38;;;3.75;64.02
22651;BME280;11492;42.646;23.400;2023-11-19T06:16:29;95138.41;;;3.68;63.29
22651;BME280;11492;42.646;23.400;2023-11-19T06:18:56;95135.97;;;3.95;63.49
22651;BME280;11492;42.646;23.400;2023-11-19T06:21:22;95159.63;;;3.97;63.66
22651;BME280;11492;42.646;23.400;2023-11-19T06:23:50;95143.25;;;3.71;63.86
22651;BME280;11492;42.646;23.400;2023-11-19T06:26:18;95127.66;;;3.74;64.08
22651;BME280;11492;42.646;23.400;2023-11-19T06:28:44;95138.94;;;3.99;64.25
22651;BME280;11492;42.646;23.400;2023-11-19T06:31:12;95148.31;;;4.08;63.70
22651;BME280;11492;42.646;23.400;2023-11-19T06:33:44;95153.59;;;4.43;72.37
22651;BME280;11492;42.646;23.400;2023-11-19T06:36:09;95135.47;;;4.98;71.70
22651;BME280;11492;42.646;23.400;2023-11-19T06:38:36;95099.38;;;5.01;64.93
22651;BME280;11492;42.646;23.400;2023-11-19T06:41:07;95137.59;;;5.29;61.89
22651;BME280;11492;42.646;23.400;2023-11-19T06:43:33;95154.22;;;5.60;61.13
22651;BME280;11492;42.646;23.400;2023-11-19T06:46:02;95139.72;;;5.68;59.98
22651;BME280;11492;42.646;23.400;2023-11-19T06:48:34;95133.13;;;5.48;58.57
22651;BME280;11492;42.646;23.400;2023-11-19T06:51:04;95145.81;;;5.50;58.92
22651;BME280;11492;42.646;23.400;2023-11-19T06:53:31;95159.25;;;5.35;59.99
22651;BME280;11492;42.646;23.400;2023-11-19T06:55:57;95160.41;;;5.23;59.52
22651;BME280;11492;42.646;23.400;2023-11-19T06:58:23;95170.13;;;5.37;59.26
22651;BME280;11492;42.646;23.400;2023-11-19T07:00:48;95163.41;;;5.36;58.92
22651;BME280;11492;42.646;23.400;2023-11-19T07:03:17;95160.38;;;5.49;59.42
22651;BME280;11492;42.646;23.400;2023-11-19T07:05:43;95154.13;;;5.52;58.40
22651;BME280;11492;42.646;23.400;2023-11-19T07:08:09;95162.38;;;5.29;57.71
22651;BME280;11492;42.646;23.400;2023-11-19T07:10:36;95169.72;;;5.15;58.52
22651;BME280;11492;42.646;23.400;2023-11-19T07:13:02;95177.81;;;5.10;59.07
22651;BME280;11492;42.646;23.400;2023-11-19T07:15:28;95171.19;;;4.91;59.04
22651;BME280;11492;42.646;23.400;2023-11-19T07:17:54;95186.44;;;4.83;58.61
22651;BME280;11492;42.646;23.400;2023-11-19T07:20:20;95191.41;;;4.84;59.03
22651;BME280;11492;42.646;23.400;2023-11-19T07:22:48;95189.56;;;4.77;58.72
22651;BME280;11492;42.646;23.400;2023-11-19T07:25:16;95201.63;;;4.84;59.16
22651;BME280;11492;42.646;23.400;2023-11-19T07:27:44;95186.84;;;4.78;59.34
22651;BME280;11492;42.646;23.400;2023-11-19T07:30:10;95200.25;;;4.54;59.52
22651;BME280;11492;42.646;23.400;2023-11-19T07:32:38;95198.78;;;4.61;59.39
22651;BME280;11492;42.646;23.400;2023-11-19T07:35:06;95207.88;;;4.72;59.85
22651;BME280;11492;42.646;23.400;2023-11-19T07:37:32;95187.91;;;4.76;59.74
22651;BME280;11492;42.646;23.400;2023-11-19T07:39:59;95227.50;;;4.81;59.09
22651;BME280;11492;42.646;23.400;2023-11-19T07:42:27;95203.78;;;4.89;58.90
22651;BME280;11492;42.646;23.400;2023-11-19T07:44:53;95224.56;;;4.76;59.15
22651;BME280;11492;42.646;23.400;2023-11-19T07:47:20;95214.34;;;4.67;58.85
22651;BME280;11492;42.646;23.400;2023-11-19T07:49:50;95217.63;;;4.50;59.04
22651;BME280;11492;42.646;23.400;2023-11-19T07:52:16;95211.41;;;4.62;59.78
22651;BME280;11492;42.646;23.400;2023-11-19T07:54:42;95220.31;;;4.40;59.94
22651;BME280;11492;42.646;23.400;2023-11-19T07:57:08;95223.03;;;4.29;59.45
22651;BME280;11492;42.646;23.400;2023-11-19T07:59:35;95231.47;;;4.57;60.44
22651;BME280;11492;42.646;23.400;2023-11-19T08:02:03;95228.25;;;4.55;59.26
22651;BME280;11492;42.646;23.400;2023-11-19T08:04:31;95225.13;;;4.61;59.10
22651;BME280;11492;42.646;23.400;2023-11-19T08:06:58;95219.44;;;4.76;58.45
22651;BME280;11492;42.646;23.400;2023-11-19T08:09:26;95229.09;;;4.82;58.50
22651;BME280;11492;42.646;23.400;2023-11-19T08:11:52;95239.41;;;4.99;57.79
22651;BME280;11492;42.646;23.400;2023-11-19T08:14:17;95231.28;;;4.77;57.78
22651;BME280;11492;42.646;23.400;2023-11-19T08:16:44;95223.44;;;4.88;58.06
22651;BME280;11492;42.646;23.400;2023-11-19T08:19:11;95214.94;;;4.97;57.11
22651;BME280;11492;42.646;23.400;2023-11-19T08:21:39;95216.75;;;5.04;57.35
22651;BME280;11492;42.646;23.400;2023-11-19T08:24:05;95262.44;;;5.26;56.75
22651;BME280;11492;42.646;23.400;2023-11-19T08:26:31;95238.19;;;5.03;57.00
22651;BME280;11492;42.646;23.400;2023-11-19T08:28:56;95232.31;;;5.20;57.16
22651;BME280;11492;42.646;23.400;2023-11-19T08:31:24;95227.56;;;4.98;56.49
22651;BME280;11492;42.646;23.400;2023-11-19T08:33:50;95224.94;;;4.81;57.72
22651;BME280;11492;42.646;23.400;2023-11-19T08:36:17;95235.59;;;4.77;58.32
22651;BME280;11492;42.646;23.400;2023-11-19T08:38:44;95235.09;;;5.00;57.96
22651;BME280;11492;42.646;23.400;2023-11-19T08:41:10;95250.50;;;5.17;57.75
22651;BME280;11492;42.646;23.400;2023-11-19T08:43:36;95252.41;;;5.15;57.17
22651;BME280;11492;42.646;23.400;2023-11-19T08:46:03;95255.47;;;4.83;57.87
22651;BME280;11492;42.646;23.400;2023-11-19T08:48:32;95257.81;;;4.67;58.00
22651;BME280;11492;42.646;23.400;2023-11-19T08:51:00;95233.44;;;5.08;57.08
22651;BME280;11492;42.646;23.400;2023-11-19T08:53:28;95240.28;;;6.81;53.38
22651;BME280;11492;42.646;23.400;2023-11-19T08:55:54;95236.56;;;8.62;49.01
22651;BME280;11492;42.646;23.400;2023-11-19T08:58:21;95237.94;;;10.02;44.88
22651;BME280;11492;42.646;23.400;2023-11-19T09:00:48;95227.56;;;10.54;43.03
22651;BME280;11492;42.646;23.400;2023-11-19T09:03:15;95226.06;;;10.82;42.11
22651;BME280;11492;42.646;23.400;2023-11-19T09:05:43;95226.81;;;11.33;41.14
22651;BME280;11492;42.646;23.400;2023-11-19T09:08:10;95209.97;;;12.49;39.59
22651;BME280;11492;42.646;23.400;2023-11-19T09:10:38;95200.09;;;12.18;39.23
22651;BME280;11492;42.646;23.400;2023-11-19T09:13:06;95206.06;;;12.18;38.45
22651;BME280;11492;42.646;23.400;2023-11-19T09:15:33;95201.34;;;13.77;36.41
22651;BME280;11492;42.646;23.400;2023-11-19T09:17:59;95191.66;;;15.33;34.12
22651;BME280;11492;42.646;23.400;2023-11-19T09:20:27;95172.75;;;15.70;33.57
22651;BME280;11492;42.646;23.400;2023-11-19T09:22:58;95198.81;;;16.56;33.03
22651;BME280;11492;42.646;23.400;2023-11-19T09:25:25;95212.44;;;16.58;32.24
22651;BME280;11492;42.646;23.400;2023-11-19T09:27:50;95205.88;;;16.12;32.20
22651;BME280;11492;42.646;23.400;2023-11-19T09:30:17;95227.91;;;14.19;34.41
22651;BME280;11492;42.646;23.400;2023-11-19T09:32:44;95224.25;;;13.07;36.57
22651;BME280;11492;42.646;23.400;2023-11-19T09:35:10;95229.19;;;12.05;38.29
22651;BME280;11492;42.646;23.400;2023-11-19T09:37:38;95197.78;;;11.02;39.42
22651;BME280;11492;42.646;23.400;2023-11-19T09:40:05;95198.00;;;10.79;41.58
22651;BME280;11492;42.646;23.400;2023-11-19T09:42:43;95184.69;;;10.09;42.18
22651;BME280;11492;42.646;23.400;2023-11-19T09:45:17;95181.31;;;9.03;43.29
22651;BME280;11492;42.646;23.400;2023-11-19T09:47:45;95198.06;;;8.92;45.10
22651;BME280;11492;42.646;23.400;2023-11-19T09:50:16;95184.75;;;9.34;44.53
22651;BME280;11492;42.646;23.400;2023-11-19T09:52:44;95161.97;;;10.27;42.45
22651;BME280;11492;42.646;23.400;2023-11-19T09:55:12;95138.16;;;11.32;39.45
22651;BME280;11492;42.646;23.400;2023-11-19T09:57:41;95136.19;;;10.27;41.74
22651;BME280;11492;42.646;23.400;2023-11-19T10:00:11;95148.03;;;10.72;41.67
22651;BME280;11492;42.646;23.400;2023-11-19T10:02:41;95155.34;;;11.54;40.50
22651;BME280;11492;42.646;23.400;2023-11-19T10:05:09;95127.91;;;13.37;37.69
22651;BME280;11492;42.646;23.400;2023-11-19T10:07:38;95106.59;;;13.47;34.93
22651;BME280;11492;42.646;23.400;2023-11-19T10:10:05;95127.44;;;14.57;34.47
22651;BME280;11492;42.646;23.400;2023-11-19T10:12:33;95103.25;;;14.89;33.09
22651;BME280;11492;42.646;23.400;2023-11-19T10:15:00;95118.53;;;15.97;32.32
22651;BME280;11492;42.646;23.400;2023-11-19T10:17:28;95113.09;;;16.66;31.09
22651;BME280;11492;42.646;23.400;2023-11-19T10:19:58;95118.97;;;16.61;30.55
22651;BME280;11492;42.646;23.400;2023-11-19T10:22:28;95108.84;;;16.95;30.34
22651;BME280;11492;42.646;23.400;2023-11-19T10:24:54;95112.34;;;17.66;29.79
22651;BME280;11492;42.646;23.400;2023-11-19T10:27:24;95118.91;;;17.33;29.04
22651;BME280;11492;42.646;23.400;2023-11-19T10:29:51;95125.38;;;15.92;31.11
22651;BME280;11492;42.646;23.400;2023-11-19T10:32:18;95131.72;;;16.08;30.32
22651;BME280;11492;42.646;23.400;2023-11-19T10:34:46;95124.56;;;16.89;29.76
22651;BME280;11492;42.646;23.400;2023-11-19T10:37:28;95126.28;;;18.24;28.15
22651;BME280;11492;42.646;23.400;2023-11-19T10:39:58;95112.88;;;18.72;27.74
22651;BME280;11492;42.646;23.400;2023-11-19T10:42:24;95085.47;;;18.23;27.47
22651;BME280;11492;42.646;23.400;2023-11-19T10:44:52;95109.81;;;18.64;27.75
22651;BME280;11492;42.646;23.400;2023-11-19T10:47:19;95111.44;;;19.78;26.16
22651;BME280;11492;42.646;23.400;2023-11-19T10:49:46;95107.94;;;20.66;25.66
22651;BME280;11492;42.646;23.400;2023-11-19T10:52:17;95098.16;;;19.34;26.11
22651;BME280;11492;42.646;23.400;2023-11-19T10:54:49;95107.59;;;19.47;26.29
22651;BME280;11492;42.646;23.400;2023-11-19T10:57:20;95111.03;;;19.13;26.43
22651;BME280;11492;42.646;23.400;2023-11-19T10:59:48;95113.75;;;20.13;25.83
22651;BME280;11492;42.646;23.400;2023-11-19T11:02:19;95134.59;;;19.24;26.53
22651;BME280;11492;42.646;23.400;2023-11-19T11:04:47;95138.19;;;18.21;27.29
22651;BME280;11492;42.646;23.400;2023-11-19T11:07:20;95124.66;;;17.24;28.35
22651;BME280;11492;42.646;23.400;2023-11-19T11:09:47;95119.09;;;16.90;28.57
22651;BME280;11492;42.646;23.400;2023-11-19T11:12:15;95115.44;;;17.92;28.52
22651;BME280;11492;42.646;23.400;2023-11-19T11:14:45;95091.00;;;19.91;26.51
22651;BME280;11492;42.646;23.400;2023-11-19T11:17:14;95091.81;;;21.60;24.70
22651;BME280;11492;42.646;23.400;2023-11-19T11:19:42;95081.78;;;21.78;23.66
22651;BME280;11492;42.646;23.400;2023-11-19T11:22:10;95097.31;;;21.58;24.37
22651;BME280;11492;42.646;23.400;2023-11-19T11:30:11;95082.66;;;22.51;23.10
22651;BME280;11492;42.646;23.400;2023-11-19T11:32:50;95095.78;;;22.47;23.02
22651;BME280;11492;42.646;23.400;2023-11-19T11:38:04;95092.50;;;21.93;23.48
22651;BME280;11492;42.646;23.400;2023-11-19T11:40:32;95075.69;;;22.41;23.20
22651;BME280;11492;42.646;23.400;2023-11-19T11:42:58;95090.56;;;23.44;22.29
22651;BME280;11492;42.646;23.400;2023-11-19T11:45:38;95075.47;;;24.46;21.39
22651;BME280;11492;42.646;23.400;2023-11-19T11:48:05;95072.88;;;25.39;20.37
22651;BME280;11492;42.646;23.400;2023-11-19T11:50:34;95043.03;;;24.94;20.20
22651;BME280;11492;42.646;23.400;2023-11-19T11:58:00;95071.31;;;26.82;18.92
22651;BME280;11492;42.646;23.400;2023-11-19T12:00:30;95068.44;;;26.21;19.43
22651;BME280;11492;42.646;23.400;2023-11-19T12:02:57;95062.78;;;28.02;18.32
22651;BME280;11492;42.646;23.400;2023-11-19T12:05:25;95087.06;;;27.02;18.68
22651;BME280;11492;42.646;23.400;2023-11-19T12:07:55;95077.41;;;28.22;18.08
22651;BME280;11492;42.646;23.400;2023-11-19T12:10:29;95075.03;;;27.47;18.22
22651;BME280;11492;42.646;23.400;2023-11-19T12:13:01;95071.31;;;25.28;19.61
22651;BME280;11492;42.646;23.400;2023-11-19T12:15:27;95071.31;;;25.23;20.21
22651;BME280;11492;42.646;23.400;2023-11-19T12:17:56;95063.03;;;22.95;21.23
22651;BME280;11492;42.646;23.400;2023-11-19T12:20:24;95082.72;;;20.38;24.20
22651;BME280;11492;42.646;23.400;2023-11-19T12:22:51;95069.75;;;18.12;27.12
22651;BME280;11492;42.646;23.400;2023-11-19T12:25:20;95045.31;;;17.43;27.81
22651;BME280;11492;42.646;23.400;2023-11-19T12:27:47;95045.06;;;16.19;29.68
22651;BME280;11492;42.646;23.400;2023-11-19T12:30:17;95069.44;;;15.57;31.01
22651;BME280;11492;42.646;23.400;2023-11-19T12:32:45;95073.84;;;14.82;32.36
22651;BME280;11492;42.646;23.400;2023-11-19T12:35:12;95053.72;;;13.42;33.51
22651;BME280;11492;42.646;23.400;2023-11-19T12:37:46;95068.03;;;12.65;35.86
22651;BME280;11492;42.646;23.400;2023-11-19T12:40:19;95060.88;;;12.40;37.09
22651;BME280;11492;42.646;23.400;2023-11-19T12:42:47;95059.44;;;11.90;37.21
22651;BME280;11492;42.646;23.400;2023-11-19T12:45:14;95056.53;;;11.58;38.40
22651;BME280;11492;42.646;23.400;2023-11-19T12:47:44;95062.19;;;11.13;39.31
22651;BME280;11492;42.646;23.400;2023-11-19T12:50:13;95045.81;;;10.77;40.09
22651;BME280;11492;42.646;23.400;2023-11-19T12:52:40;95055.34;;;10.63;39.92
22651;BME280;11492;42.646;23.400;2023-11-19T12:55:25;95053.34;;;10.50;41.27
22651;BME280;11492;42.646;23.400;2023-11-19T12:57:54;95055.69;;;10.46;42.90
22651;BME280;11492;42.646;23.400;2023-11-19T13:00:25;95067.69;;;10.39;44.59
22651;BME280;11492;42.646;23.400;2023-11-19T13:02:54;95066.41;;;10.35;44.75
22651;BME280;11492;42.646;23.400;2023-11-19T13:08:08;95040.88;;;13.28;36.31
22651;BME280;11492;42.646;23.400;2023-11-19T13:10:54;95020.22;;;15.86;33.14
22651;BME280;11492;42.646;23.400;2023-11-19T13:13:20;95022.31;;;16.32;31.32
22651;BME280;11492;42.646;23.400;2023-11-19T13:15:46;95017.34;;;18.07;29.55
22651;BME280;11492;42.646;23.400;2023-11-19T13:18:12;95003.38;;;20.31;27.29
22651;BME280;11492;42.646;23.400;2023-11-19T13:20:39;94997.75;;;21.67;25.36
22651;BME280;11492;42.646;23.400;2023-11-19T13:23:05;95000.22;;;22.20;24.48